Air Sicilia Virtual Airways - Route

Air Sicilia Virtual Airways - SIC061L

( IT ) LICJ
Falcone–Borsellino Airport
PALERMO ( PMO )
plane_to ( IT ) LICR
Reggio Calabria Airport
REGGIO CALABRIA ( REG )
Mediterraneo TOUR VFR - LEG: 1

AIRPORT NEAR NAVIGATION AIDS

Type Name Frequency
VOR-DME Palermo 112300 KHZ
NDB Palermo 356 KHZ
VOR-DME Raisi 113000 KHZ
NDB Raisi 329 KHZ

METAR / TAF
LICJ 180450Z 20004KT CAVOK 20/16 Q1015

RUNWAY INFORMATION

Runway Runway length Runway width Runway elevation Runway displaced threshold Runway heading
02 6804 148 42 10 24
20 6804 148 22 10 204
07 10912 197 33 404 66.9
25 10912 197 50 679 246.9

AIRPORT FREQUENCIES

Type Name Frequency
APP APP 120.2 MHZ
GND RAISI GND 121.625 MHZ
TWR RAISI TWR 119.05 MHZ

AIRPORT NEAR NAVIGATION AIDS

Type Name Frequency
VOR-DME Reggio Calabria 111000 KHZ
NDB Reggio Calabria 325 KHZ

METAR / TAF
LICR 180450Z 05003KT CAVOK 23/10 Q1015
LICR 180004Z 1800/1824 CNL= LIPB 180004Z 1800/1824 CNL

RUNWAY INFORMATION

Runway Runway length Runway width Runway elevation Runway displaced threshold Runway heading
11 5574 148 38 0 113
29 5574 148 43 0 293
15 6549 148 84 840 153
33 6549 148 34 164 333

AIRPORT FREQUENCIES

Type Name Frequency
APP APP 120.275 MHZ
TWR TWR 118.25 MHZ

Flightplan

NORDCAPOGALLO CEFALU VULCANO SPARTA TORREFARO FAVAZZINA VILLASGIOVANNI GALLICO

Air Sicilia Virtual Airways Fleets

AVAILABLE AIRCRAFTS for route at this time in Falcone–Borsellino Airport
C172 - Cessna 172 Skyhawk
( US ) Cessna

Aircraft in fleet: 13

144 NM

Distance in nautical miles.

€ 100,00

Ticket price for this flight.

Nr. 1

Leg



12-11-2018
Aerosoft Airport Rio de Janeiro International V2.0 XP

L'Aeroporto Internazionale di Rio de Janeiro-Galeão (IATA: GIG, ICAO: SBGL), costruito nel 1952 nel quartiere di Ilha do Governador ed intitolato al musicista Antônio Carlos Jobim, è il principale aeroporto internazio ....


15-10-2018
Aerosoft A320 Family professional

La gamma di aeromobili A320 è una delle più comuni nei cieli. Questi aerei di linea a doppio-getto a corto e medio raggio si sono dimostrati convenienti, affidabili e prontamente disponibili, rendendoli le opzioni migl ....


10-10-2018
Motore critico ( Critical Engine )

Il motore critico di un velivolo ad ala fissa multi-motore è il motore che, in caso di guasto, influirebbe negativamente sulle prestazioni o sulla capacità di manovra di un aereo. Sui velivoli ad elica, vi è un ....


04-10-2018
Aerosoft Dortmund XP

Scopri il centro della regione della Ruhr su XPlane 11 - lo scenario Dortmund XP è una ricostruzione completa della città di Dortmund per il simulatore di volo targato Laminar. Oltre all'intera area urbana di Dortmu ....


07-08-2018
Aerosoft Professional Flight Planner PFPX

PFPX - Professional Flight Planner X - è un nuovo ed innovativo strumento di pianificazione del volo sviluppato da piloti e dispatcher del mondo reale. È un'aggiunta preziosa e realistica alla tua esperienza di simulaz ....